All Spectrum Aviation - Van Nuys Airport - KVNY

HOME

Condor Squadron KVNY Webcam

Visit our Electronics Store

Condor Squadron Webcam - Van Nuys Airport - KVNY
Picture taken: Sun, 18 Apr 2021 01:58:41 -0700
YouTube Channel!    Latest Timelapse Movie    Full Size Image    Regular Size Image    

2021/04/18 07:51 KVNY 180751Z AUTO 00000KT 10SM CLR 17/07 A2998 RMK AO2 SLP144 T01720067 402610111

HOME

Condor Squadron KVNY Webcam

Visit our Electronics Store